Terminal Aerodrome Forecast
Issued by NWS La Crosse, WI

Home | Current Version | Previous Version | Text Only | Print | Product List | Glossary On
Versions: 1 2 3 4 5 6 7 8 9 10 11 12 13 14
000
FTUS43 KARX 271720
TAFLSE
TAF
KLSE 271720Z 2718/2818 20008KT P6SM FEW050
     FM280100 18007KT P6SM FEW250
     FM280600 16010KT P6SM SCT110 WS020/20040KT
     FM281100 16013KT 6SM -SHRA VCTS OVC090CB
      TEMPO 2812/2815 27025KT 2SM TSRA BR BKN025CB
     FM281600 17014G23KT P6SM -SHRA VCTS BKN030CB=

USA.gov is the U.S. government's official web portal to all federal, state and local government web resources and services.